sensor_id;sensor_type;location;lat;lon;timestamp;temperature;humidity
59075;DHT22;44860;53.020;6.738;2023-12-07T00:01:29;2.70;99.90
59075;DHT22;44860;53.020;6.738;2023-12-07T00:03:54;2.70;99.90
59075;DHT22;44860;53.020;6.738;2023-12-07T00:06:20;2.70;99.90
59075;DHT22;44860;53.020;6.738;2023-12-07T00:08:45;2.70;99.90
59075;DHT22;44860;53.020;6.738;2023-12-07T00:11:11;2.70;99.90
59075;DHT22;44860;53.020;6.738;2023-12-07T00:13:37;2.70;99.90
59075;DHT22;44860;53.020;6.738;2023-12-07T00:16:03;2.70;99.90
59075;DHT22;44860;53.020;6.738;2023-12-07T00:18:29;2.70;99.90
59075;DHT22;44860;53.020;6.738;2023-12-07T00:20:54;2.70;99.90
59075;DHT22;44860;53.020;6.738;2023-12-07T00:23:20;2.70;99.90
59075;DHT22;44860;53.020;6.738;2023-12-07T00:25:46;2.70;99.90
59075;DHT22;44860;53.020;6.738;2023-12-07T00:28:11;2.70;99.90
59075;DHT22;44860;53.020;6.738;2023-12-07T00:30:37;2.70;99.90
59075;DHT22;44860;53.020;6.738;2023-12-07T00:33:02;2.70;99.90
59075;DHT22;44860;53.020;6.738;2023-12-07T00:35:28;2.70;99.90
59075;DHT22;44860;53.020;6.738;2023-12-07T00:37:55;2.70;99.90
59075;DHT22;44860;53.020;6.738;2023-12-07T00:40:22;2.70;99.90
59075;DHT22;44860;53.020;6.738;2023-12-07T00:42:47;2.70;99.90
59075;DHT22;44860;53.020;6.738;2023-12-07T00:45:13;2.70;99.90
59075;DHT22;44860;53.020;6.738;2023-12-07T00:47:39;2.70;99.90
59075;DHT22;44860;53.020;6.738;2023-12-07T00:50:05;2.70;99.90
59075;DHT22;44860;53.020;6.738;2023-12-07T00:52:31;2.70;99.90
59075;DHT22;44860;53.020;6.738;2023-12-07T00:54:57;2.70;99.90
59075;DHT22;44860;53.020;6.738;2023-12-07T00:57:23;2.70;99.90
59075;DHT22;44860;53.020;6.738;2023-12-07T00:59:48;2.70;99.90
59075;DHT22;44860;53.020;6.738;2023-12-07T01:02:14;2.70;99.90
59075;DHT22;44860;53.020;6.738;2023-12-07T01:04:40;2.70;99.90
59075;DHT22;44860;53.020;6.738;2023-12-07T01:07:05;2.70;99.90
59075;DHT22;44860;53.020;6.738;2023-12-07T01:09:31;2.70;99.90
59075;DHT22;44860;53.020;6.738;2023-12-07T01:11:57;2.70;99.90
59075;DHT22;44860;53.020;6.738;2023-12-07T01:14:23;2.70;99.90
59075;DHT22;44860;53.020;6.738;2023-12-07T01:16:49;2.70;99.90
59075;DHT22;44860;53.020;6.738;2023-12-07T01:19:15;2.60;99.90
59075;DHT22;44860;53.020;6.738;2023-12-07T01:21:41;2.60;99.90
59075;DHT22;44860;53.020;6.738;2023-12-07T01:24:08;2.60;99.90
59075;DHT22;44860;53.020;6.738;2023-12-07T01:26:33;2.60;99.90
59075;DHT22;44860;53.020;6.738;2023-12-07T01:28:59;2.70;99.90
59075;DHT22;44860;53.020;6.738;2023-12-07T01:31:25;2.60;99.90
59075;DHT22;44860;53.020;6.738;2023-12-07T01:33:50;2.60;99.90
59075;DHT22;44860;53.020;6.738;2023-12-07T01:36:16;2.60;99.90
59075;DHT22;44860;53.020;6.738;2023-12-07T01:38:42;2.60;99.90
59075;DHT22;44860;53.020;6.738;2023-12-07T01:41:09;2.60;99.90
59075;DHT22;44860;53.020;6.738;2023-12-07T01:43:34;2.60;99.90
59075;DHT22;44860;53.020;6.738;2023-12-07T01:46:00;2.60;99.90
59075;DHT22;44860;53.020;6.738;2023-12-07T01:48:26;2.60;99.90
59075;DHT22;44860;53.020;6.738;2023-12-07T01:50:54;2.60;99.90
59075;DHT22;44860;53.020;6.738;2023-12-07T01:53:22;2.60;99.90
59075;DHT22;44860;53.020;6.738;2023-12-07T01:55:49;2.60;99.90
59075;DHT22;44860;53.020;6.738;2023-12-07T01:58:17;2.60;99.90
59075;DHT22;44860;53.020;6.738;2023-12-07T02:00:43;2.70;99.90
59075;DHT22;44860;53.020;6.738;2023-12-07T02:03:09;2.70;99.90
59075;DHT22;44860;53.020;6.738;2023-12-07T02:05:36;2.70;99.90
59075;DHT22;44860;53.020;6.738;2023-12-07T02:08:03;2.60;99.90
59075;DHT22;44860;53.020;6.738;2023-12-07T02:10:30;2.60;99.90
59075;DHT22;44860;53.020;6.738;2023-12-07T02:12:55;2.60;99.90
59075;DHT22;44860;53.020;6.738;2023-12-07T02:15:21;2.70;99.90
59075;DHT22;44860;53.020;6.738;2023-12-07T02:18:03;2.70;99.90
59075;DHT22;44860;53.020;6.738;2023-12-07T02:20:39;2.70;99.90
59075;DHT22;44860;53.020;6.738;2023-12-07T02:23:08;2.70;99.90
59075;DHT22;44860;53.020;6.738;2023-12-07T02:25:44;2.70;99.90
59075;DHT22;44860;53.020;6.738;2023-12-07T02:28:12;2.70;99.90
59075;DHT22;44860;53.020;6.738;2023-12-07T02:30:37;2.70;99.90
59075;DHT22;44860;53.020;6.738;2023-12-07T02:33:03;2.70;99.90
59075;DHT22;44860;53.020;6.738;2023-12-07T02:35:30;2.60;99.90
59075;DHT22;44860;53.020;6.738;2023-12-07T02:37:57;2.60;99.90
59075;DHT22;44860;53.020;6.738;2023-12-07T02:40:25;2.60;99.90
59075;DHT22;44860;53.020;6.738;2023-12-07T02:42:53;2.60;99.90
59075;DHT22;44860;53.020;6.738;2023-12-07T02:45:19;2.60;99.90
59075;DHT22;44860;53.020;6.738;2023-12-07T02:47:45;2.60;99.90
59075;DHT22;44860;53.020;6.738;2023-12-07T02:50:12;2.60;99.90
59075;DHT22;44860;53.020;6.738;2023-12-07T02:52:38;2.60;99.90
59075;DHT22;44860;53.020;6.738;2023-12-07T02:55:04;2.60;99.90
59075;DHT22;44860;53.020;6.738;2023-12-07T02:57:30;2.60;99.90
59075;DHT22;44860;53.020;6.738;2023-12-07T02:59:56;2.60;99.90
59075;DHT22;44860;53.020;6.738;2023-12-07T03:02:22;2.60;99.90
59075;DHT22;44860;53.020;6.738;2023-12-07T03:04:48;2.60;99.90
59075;DHT22;44860;53.020;6.738;2023-12-07T03:07:13;2.60;99.90
59075;DHT22;44860;53.020;6.738;2023-12-07T03:09:39;2.60;99.90
59075;DHT22;44860;53.020;6.738;2023-12-07T03:12:07;2.60;99.90
59075;DHT22;44860;53.020;6.738;2023-12-07T03:14:32;2.60;99.90
59075;DHT22;44860;53.020;6.738;2023-12-07T03:16:58;2.60;99.90
59075;DHT22;44860;53.020;6.738;2023-12-07T03:19:24;2.60;99.90
59075;DHT22;44860;53.020;6.738;2023-12-07T03:21:50;2.60;99.90
59075;DHT22;44860;53.020;6.738;2023-12-07T03:24:15;2.60;99.90
59075;DHT22;44860;53.020;6.738;2023-12-07T03:26:41;2.60;99.90
59075;DHT22;44860;53.020;6.738;2023-12-07T03:29:07;2.60;99.90
59075;DHT22;44860;53.020;6.738;2023-12-07T03:31:33;2.60;99.90
59075;DHT22;44860;53.020;6.738;2023-12-07T03:33:59;2.60;99.90
59075;DHT22;44860;53.020;6.738;2023-12-07T03:36:27;2.60;99.90
59075;DHT22;44860;53.020;6.738;2023-12-07T03:38:53;2.60;99.90
59075;DHT22;44860;53.020;6.738;2023-12-07T03:41:18;2.50;99.90
59075;DHT22;44860;53.020;6.738;2023-12-07T03:43:44;2.50;99.90
59075;DHT22;44860;53.020;6.738;2023-12-07T03:46:10;2.50;99.90
59075;DHT22;44860;53.020;6.738;2023-12-07T03:48:35;2.50;99.90
59075;DHT22;44860;53.020;6.738;2023-12-07T03:51:01;2.50;99.90
59075;DHT22;44860;53.020;6.738;2023-12-07T03:53:27;2.50;99.90
59075;DHT22;44860;53.020;6.738;2023-12-07T03:55:54;2.50;99.90
59075;DHT22;44860;53.020;6.738;2023-12-07T03:58:19;2.50;99.90
59075;DHT22;44860;53.020;6.738;2023-12-07T04:00:45;2.50;99.90
59075;DHT22;44860;53.020;6.738;2023-12-07T04:03:11;2.50;99.90
59075;DHT22;44860;53.020;6.738;2023-12-07T04:05:37;2.50;99.90
59075;DHT22;44860;53.020;6.738;2023-12-07T04:08:03;2.50;99.90
59075;DHT22;44860;53.020;6.738;2023-12-07T04:10:31;2.50;99.90
59075;DHT22;44860;53.020;6.738;2023-12-07T04:12:56;2.50;99.90
59075;DHT22;44860;53.020;6.738;2023-12-07T04:15:22;2.50;99.90
59075;DHT22;44860;53.020;6.738;2023-12-07T04:17:48;2.50;99.90
59075;DHT22;44860;53.020;6.738;2023-12-07T04:20:14;2.50;99.90
59075;DHT22;44860;53.020;6.738;2023-12-07T04:22:40;2.50;99.90
59075;DHT22;44860;53.020;6.738;2023-12-07T04:25:06;2.50;99.90
59075;DHT22;44860;53.020;6.738;2023-12-07T04:27:33;2.40;99.90
59075;DHT22;44860;53.020;6.738;2023-12-07T04:29:59;2.40;99.90
59075;DHT22;44860;53.020;6.738;2023-12-07T04:32:25;2.40;99.90
59075;DHT22;44860;53.020;6.738;2023-12-07T04:34:51;2.40;99.90
59075;DHT22;44860;53.020;6.738;2023-12-07T04:37:17;2.40;99.90
59075;DHT22;44860;53.020;6.738;2023-12-07T04:39:43;2.40;99.90
59075;DHT22;44860;53.020;6.738;2023-12-07T04:42:08;2.40;99.90
59075;DHT22;44860;53.020;6.738;2023-12-07T04:44:34;2.40;99.90
59075;DHT22;44860;53.020;6.738;2023-12-07T04:47:00;2.30;99.90
59075;DHT22;44860;53.020;6.738;2023-12-07T04:49:26;2.30;99.90
59075;DHT22;44860;53.020;6.738;2023-12-07T04:51:51;2.30;99.90
59075;DHT22;44860;53.020;6.738;2023-12-07T04:54:17;2.30;99.90
59075;DHT22;44860;53.020;6.738;2023-12-07T04:56:43;2.30;99.90
59075;DHT22;44860;53.020;6.738;2023-12-07T04:59:12;2.20;99.90
59075;DHT22;44860;53.020;6.738;2023-12-07T05:01:38;2.20;99.90
59075;DHT22;44860;53.020;6.738;2023-12-07T05:04:05;2.20;99.90
59075;DHT22;44860;53.020;6.738;2023-12-07T05:06:31;2.10;99.90
59075;DHT22;44860;53.020;6.738;2023-12-07T05:08:57;2.10;99.90
59075;DHT22;44860;53.020;6.738;2023-12-07T05:11:23;2.10;99.90
59075;DHT22;44860;53.020;6.738;2023-12-07T05:13:49;2.10;99.90
59075;DHT22;44860;53.020;6.738;2023-12-07T05:16:14;2.10;99.90
59075;DHT22;44860;53.020;6.738;2023-12-07T05:18:40;2.00;99.90
59075;DHT22;44860;53.020;6.738;2023-12-07T05:21:07;2.00;99.90
59075;DHT22;44860;53.020;6.738;2023-12-07T05:23:33;2.00;99.90
59075;DHT22;44860;53.020;6.738;2023-12-07T05:25:59;2.00;99.90
59075;DHT22;44860;53.020;6.738;2023-12-07T05:28:25;1.90;99.90
59075;DHT22;44860;53.020;6.738;2023-12-07T05:30:51;1.90;99.90
59075;DHT22;44860;53.020;6.738;2023-12-07T05:33:18;1.90;99.90
59075;DHT22;44860;53.020;6.738;2023-12-07T05:35:45;1.90;99.90
59075;DHT22;44860;53.020;6.738;2023-12-07T05:38:10;1.80;99.90
59075;DHT22;44860;53.020;6.738;2023-12-07T05:40:36;1.80;99.90
59075;DHT22;44860;53.020;6.738;2023-12-07T05:43:02;1.80;99.90
59075;DHT22;44860;53.020;6.738;2023-12-07T05:45:28;1.80;99.90
59075;DHT22;44860;53.020;6.738;2023-12-07T05:47:54;1.80;99.90
59075;DHT22;44860;53.020;6.738;2023-12-07T05:50:19;1.80;99.90
59075;DHT22;44860;53.020;6.738;2023-12-07T05:52:46;1.70;99.90
59075;DHT22;44860;53.020;6.738;2023-12-07T05:55:12;1.70;99.90
59075;DHT22;44860;53.020;6.738;2023-12-07T05:57:37;1.70;99.90
59075;DHT22;44860;53.020;6.738;2023-12-07T06:00:04;1.70;99.90
59075;DHT22;44860;53.020;6.738;2023-12-07T06:02:34;1.70;99.90
59075;DHT22;44860;53.020;6.738;2023-12-07T06:05:00;1.70;99.90
59075;DHT22;44860;53.020;6.738;2023-12-07T06:07:26;1.70;99.90
59075;DHT22;44860;53.020;6.738;2023-12-07T06:09:51;1.70;99.90
59075;DHT22;44860;53.020;6.738;2023-12-07T06:12:17;1.60;99.90
59075;DHT22;44860;53.020;6.738;2023-12-07T06:14:43;1.60;99.90
59075;DHT22;44860;53.020;6.738;2023-12-07T06:17:08;1.60;99.90
59075;DHT22;44860;53.020;6.738;2023-12-07T06:19:34;1.60;99.90
59075;DHT22;44860;53.020;6.738;2023-12-07T06:22:00;1.60;99.90
59075;DHT22;44860;53.020;6.738;2023-12-07T06:24:25;1.50;99.90
59075;DHT22;44860;53.020;6.738;2023-12-07T06:26:52;1.50;99.90
59075;DHT22;44860;53.020;6.738;2023-12-07T06:29:17;1.50;99.90
59075;DHT22;44860;53.020;6.738;2023-12-07T06:31:44;1.50;99.90
59075;DHT22;44860;53.020;6.738;2023-12-07T06:34:10;1.40;99.90
59075;DHT22;44860;53.020;6.738;2023-12-07T06:36:36;1.40;99.90
59075;DHT22;44860;53.020;6.738;2023-12-07T06:39:02;1.40;99.90
59075;DHT22;44860;53.020;6.738;2023-12-07T06:41:31;1.30;99.90
59075;DHT22;44860;53.020;6.738;2023-12-07T06:43:57;1.30;99.90
59075;DHT22;44860;53.020;6.738;2023-12-07T06:46:22;1.30;99.90
59075;DHT22;44860;53.020;6.738;2023-12-07T06:48:48;1.30;99.90
59075;DHT22;44860;53.020;6.738;2023-12-07T06:51:13;1.30;99.90
59075;DHT22;44860;53.020;6.738;2023-12-07T06:53:40;1.30;99.90
59075;DHT22;44860;53.020;6.738;2023-12-07T06:56:07;1.40;99.90
59075;DHT22;44860;53.020;6.738;2023-12-07T06:58:33;1.30;99.90
59075;DHT22;44860;53.020;6.738;2023-12-07T07:00:59;1.30;99.90
59075;DHT22;44860;53.020;6.738;2023-12-07T07:03:25;1.30;99.90
59075;DHT22;44860;53.020;6.738;2023-12-07T07:05:50;1.30;99.90
59075;DHT22;44860;53.020;6.738;2023-12-07T07:08:16;1.30;99.90
59075;DHT22;44860;53.020;6.738;2023-12-07T07:10:43;1.30;99.90
59075;DHT22;44860;53.020;6.738;2023-12-07T07:13:09;1.30;99.90
59075;DHT22;44860;53.020;6.738;2023-12-07T07:15:34;1.30;99.90
59075;DHT22;44860;53.020;6.738;2023-12-07T07:18:01;1.30;99.90
59075;DHT22;44860;53.020;6.738;2023-12-07T07:20:27;1.40;99.90
59075;DHT22;44860;53.020;6.738;2023-12-07T07:22:52;1.30;99.90
59075;DHT22;44860;53.020;6.738;2023-12-07T07:25:18;1.40;99.90
59075;DHT22;44860;53.020;6.738;2023-12-07T07:27:48;1.40;99.90
59075;DHT22;44860;53.020;6.738;2023-12-07T07:30:14;1.40;99.90
59075;DHT22;44860;53.020;6.738;2023-12-07T07:32:40;1.30;99.90
59075;DHT22;44860;53.020;6.738;2023-12-07T07:35:06;1.30;99.90
59075;DHT22;44860;53.020;6.738;2023-12-07T07:37:31;1.30;99.90
59075;DHT22;44860;53.020;6.738;2023-12-07T07:39:57;1.30;99.90
59075;DHT22;44860;53.020;6.738;2023-12-07T07:42:25;1.30;99.90
59075;DHT22;44860;53.020;6.738;2023-12-07T07:44:51;1.30;99.90
59075;DHT22;44860;53.020;6.738;2023-12-07T07:47:16;1.30;99.90
59075;DHT22;44860;53.020;6.738;2023-12-07T07:49:42;1.40;99.90
59075;DHT22;44860;53.020;6.738;2023-12-07T07:52:08;1.40;99.90
59075;DHT22;44860;53.020;6.738;2023-12-07T07:54:33;1.40;99.90
59075;DHT22;44860;53.020;6.738;2023-12-07T07:56:59;1.40;99.90
59075;DHT22;44860;53.020;6.738;2023-12-07T07:59:26;1.40;99.90
59075;DHT22;44860;53.020;6.738;2023-12-07T08:01:52;1.40;99.90
59075;DHT22;44860;53.020;6.738;2023-12-07T08:04:18;1.40;99.90
59075;DHT22;44860;53.020;6.738;2023-12-07T08:06:43;1.50;99.90
59075;DHT22;44860;53.020;6.738;2023-12-07T08:09:09;1.40;99.90
59075;DHT22;44860;53.020;6.738;2023-12-07T08:11:35;1.40;99.90
59075;DHT22;44860;53.020;6.738;2023-12-07T08:14:00;1.40;99.90
59075;DHT22;44860;53.020;6.738;2023-12-07T08:16:26;1.50;99.90
59075;DHT22;44860;53.020;6.738;2023-12-07T08:18:53;1.50;99.90
59075;DHT22;44860;53.020;6.738;2023-12-07T08:21:20;1.50;99.90
59075;DHT22;44860;53.020;6.738;2023-12-07T08:23:46;1.50;99.90
59075;DHT22;44860;53.020;6.738;2023-12-07T08:26:12;1.50;99.90
59075;DHT22;44860;53.020;6.738;2023-12-07T08:28:43;1.50;99.90
59075;DHT22;44860;53.020;6.738;2023-12-07T08:31:09;1.50;99.90
59075;DHT22;44860;53.020;6.738;2023-12-07T08:33:35;1.50;99.90
59075;DHT22;44860;53.020;6.738;2023-12-07T08:36:03;1.50;99.90
59075;DHT22;44860;53.020;6.738;2023-12-07T08:38:28;1.50;99.90
59075;DHT22;44860;53.020;6.738;2023-12-07T08:40:54;1.60;99.90
59075;DHT22;44860;53.020;6.738;2023-12-07T08:43:21;1.60;99.90
59075;DHT22;44860;53.020;6.738;2023-12-07T08:45:51;1.60;99.90
59075;DHT22;44860;53.020;6.738;2023-12-07T08:48:20;1.60;99.90
59075;DHT22;44860;53.020;6.738;2023-12-07T08:50:46;1.60;99.90
59075;DHT22;44860;53.020;6.738;2023-12-07T08:53:12;1.60;99.90
59075;DHT22;44860;53.020;6.738;2023-12-07T08:55:37;1.60;99.90
59075;DHT22;44860;53.020;6.738;2023-12-07T08:58:03;1.60;99.90
59075;DHT22;44860;53.020;6.738;2023-12-07T09:00:31;1.60;99.90
59075;DHT22;44860;53.020;6.738;2023-12-07T09:02:57;1.70;99.90
59075;DHT22;44860;53.020;6.738;2023-12-07T09:05:23;1.70;99.90
59075;DHT22;44860;53.020;6.738;2023-12-07T09:07:49;1.70;99.90
59075;DHT22;44860;53.020;6.738;2023-12-07T09:10:14;1.70;99.90
59075;DHT22;44860;53.020;6.738;2023-12-07T09:12:40;1.70;99.90
59075;DHT22;44860;53.020;6.738;2023-12-07T09:15:10;1.70;99.90
59075;DHT22;44860;53.020;6.738;2023-12-07T09:17:37;1.70;99.90
59075;DHT22;44860;53.020;6.738;2023-12-07T09:20:12;1.80;99.90
59075;DHT22;44860;53.020;6.738;2023-12-07T09:22:46;1.70;99.90
59075;DHT22;44860;53.020;6.738;2023-12-07T09:25:12;1.70;99.90
59075;DHT22;44860;53.020;6.738;2023-12-07T09:27:39;1.70;99.90
59075;DHT22;44860;53.020;6.738;2023-12-07T09:30:09;1.70;99.90
59075;DHT22;44860;53.020;6.738;2023-12-07T09:32:39;1.70;99.90
59075;DHT22;44860;53.020;6.738;2023-12-07T09:38:25;1.70;99.90
59075;DHT22;44860;53.020;6.738;2023-12-07T09:40:54;1.70;99.90
59075;DHT22;44860;53.020;6.738;2023-12-07T09:43:20;1.70;99.90
59075;DHT22;44860;53.020;6.738;2023-12-07T09:45:48;1.70;99.90
59075;DHT22;44860;53.020;6.738;2023-12-07T09:48:13;1.80;99.90
59075;DHT22;44860;53.020;6.738;2023-12-07T09:50:41;1.80;99.90
59075;DHT22;44860;53.020;6.738;2023-12-07T09:53:08;1.80;99.90
59075;DHT22;44860;53.020;6.738;2023-12-07T09:55:33;1.90;99.90
59075;DHT22;44860;53.020;6.738;2023-12-07T09:57:59;1.90;99.90
59075;DHT22;44860;53.020;6.738;2023-12-07T10:00:25;1.90;99.90
59075;DHT22;44860;53.020;6.738;2023-12-07T10:02:51;2.00;99.90
59075;DHT22;44860;53.020;6.738;2023-12-07T10:05:17;2.00;99.90
59075;DHT22;44860;53.020;6.738;2023-12-07T10:07:47;2.00;99.90
59075;DHT22;44860;53.020;6.738;2023-12-07T10:10:16;2.10;99.90
59075;DHT22;44860;53.020;6.738;2023-12-07T10:12:59;2.10;99.90
59075;DHT22;44860;53.020;6.738;2023-12-07T10:15:26;2.10;99.90
59075;DHT22;44860;53.020;6.738;2023-12-07T10:17:56;2.20;99.90
59075;DHT22;44860;53.020;6.738;2023-12-07T10:20:27;2.20;99.90
59075;DHT22;44860;53.020;6.738;2023-12-07T10:23:08;2.20;99.90
59075;DHT22;44860;53.020;6.738;2023-12-07T10:25:42;2.30;99.90
59075;DHT22;44860;53.020;6.738;2023-12-07T10:28:08;2.30;99.90
59075;DHT22;44860;53.020;6.738;2023-12-07T10:30:37;2.40;99.90
59075;DHT22;44860;53.020;6.738;2023-12-07T10:33:05;2.40;99.90
59075;DHT22;44860;53.020;6.738;2023-12-07T10:35:32;2.40;99.90
59075;DHT22;44860;53.020;6.738;2023-12-07T10:37:58;2.50;99.90
59075;DHT22;44860;53.020;6.738;2023-12-07T10:40:24;2.50;99.90
59075;DHT22;44860;53.020;6.738;2023-12-07T10:42:54;2.50;99.90
59075;DHT22;44860;53.020;6.738;2023-12-07T10:45:22;2.60;99.90
59075;DHT22;44860;53.020;6.738;2023-12-07T10:47:51;2.60;99.90
59075;DHT22;44860;53.020;6.738;2023-12-07T10:50:22;2.60;99.90
59075;DHT22;44860;53.020;6.738;2023-12-07T10:52:52;2.60;99.90
59075;DHT22;44860;53.020;6.738;2023-12-07T10:55:28;2.60;99.90
59075;DHT22;44860;53.020;6.738;2023-12-07T10:57:55;2.60;99.90
59075;DHT22;44860;53.020;6.738;2023-12-07T11:00:22;2.60;99.90
59075;DHT22;44860;53.020;6.738;2023-12-07T11:02:50;2.60;99.90
59075;DHT22;44860;53.020;6.738;2023-12-07T11:05:17;2.60;99.90
59075;DHT22;44860;53.020;6.738;2023-12-07T11:11:00;2.60;99.90
59075;DHT22;44860;53.020;6.738;2023-12-07T11:13:31;2.50;99.90
59075;DHT22;44860;53.020;6.738;2023-12-07T11:15:58;2.50;99.90
59075;DHT22;44860;53.020;6.738;2023-12-07T11:18:28;2.50;99.90
59075;DHT22;44860;53.020;6.738;2023-12-07T11:20:55;2.40;99.90
59075;DHT22;44860;53.020;6.738;2023-12-07T11:23:21;2.40;99.90
59075;DHT22;44860;53.020;6.738;2023-12-07T11:25:48;2.40;99.90
59075;DHT22;44860;53.020;6.738;2023-12-07T11:28:15;2.30;99.90
59075;DHT22;44860;53.020;6.738;2023-12-07T11:30:45;2.30;99.90
59075;DHT22;44860;53.020;6.738;2023-12-07T11:33:11;2.30;99.90
59075;DHT22;44860;53.020;6.738;2023-12-07T11:38:28;2.20;99.90
59075;DHT22;44860;53.020;6.738;2023-12-07T11:40:55;2.20;99.90
59075;DHT22;44860;53.020;6.738;2023-12-07T11:43:36;2.20;99.90
59075;DHT22;44860;53.020;6.738;2023-12-07T11:46:09;2.20;99.90
59075;DHT22;44860;53.020;6.738;2023-12-07T11:48:36;2.10;99.90
59075;DHT22;44860;53.020;6.738;2023-12-07T11:51:06;2.10;99.90
59075;DHT22;44860;53.020;6.738;2023-12-07T11:53:37;2.10;99.90
59075;DHT22;44860;53.020;6.738;2023-12-07T11:56:04;2.10;99.90
59075;DHT22;44860;53.020;6.738;2023-12-07T11:58:33;2.10;99.90
59075;DHT22;44860;53.020;6.738;2023-12-07T12:00:59;2.00;99.90
59075;DHT22;44860;53.020;6.738;2023-12-07T12:03:28;2.00;99.90
59075;DHT22;44860;53.020;6.738;2023-12-07T12:05:55;2.00;99.90
59075;DHT22;44860;53.020;6.738;2023-12-07T12:08:21;2.00;99.90
59075;DHT22;44860;53.020;6.738;2023-12-07T12:10:48;2.00;99.90
59075;DHT22;44860;53.020;6.738;2023-12-07T12:13:15;2.00;99.90
59075;DHT22;44860;53.020;6.738;2023-12-07T12:15:41;2.00;99.90
59075;DHT22;44860;53.020;6.738;2023-12-07T12:18:08;1.90;99.90
59075;DHT22;44860;53.020;6.738;2023-12-07T12:20:34;1.90;99.90
59075;DHT22;44860;53.020;6.738;2023-12-07T12:23:00;1.90;99.90
59075;DHT22;44860;53.020;6.738;2023-12-07T12:25:27;1.80;99.90
59075;DHT22;44860;53.020;6.738;2023-12-07T12:28:06;1.80;99.90
59075;DHT22;44860;53.020;6.738;2023-12-07T12:30:32;1.80;99.90
59075;DHT22;44860;53.020;6.738;2023-12-07T12:32:59;1.80;99.90
59075;DHT22;44860;53.020;6.738;2023-12-07T12:35:28;1.80;99.90
59075;DHT22;44860;53.020;6.738;2023-12-07T12:37:54;1.80;99.90
59075;DHT22;44860;53.020;6.738;2023-12-07T12:40:23;1.80;99.90
59075;DHT22;44860;53.020;6.738;2023-12-07T12:42:51;1.80;99.90
59075;DHT22;44860;53.020;6.738;2023-12-07T12:45:19;1.80;99.90
59075;DHT22;44860;53.020;6.738;2023-12-07T12:47:46;1.80;99.90
59075;DHT22;44860;53.020;6.738;2023-12-07T12:50:32;1.80;99.90
59075;DHT22;44860;53.020;6.738;2023-12-07T12:52:59;1.80;99.90
59075;DHT22;44860;53.020;6.738;2023-12-07T12:55:30;1.80;99.90
59075;DHT22;44860;53.020;6.738;2023-12-07T12:57:56;1.80;99.90
59075;DHT22;44860;53.020;6.738;2023-12-07T13:00:24;1.80;99.90
59075;DHT22;44860;53.020;6.738;2023-12-07T13:02:50;1.80;99.90
59075;DHT22;44860;53.020;6.738;2023-12-07T13:05:15;1.80;99.90
59075;DHT22;44860;53.020;6.738;2023-12-07T13:07:44;1.80;99.90
59075;DHT22;44860;53.020;6.738;2023-12-07T13:10:10;1.80;99.90
59075;DHT22;44860;53.020;6.738;2023-12-07T13:12:36;1.80;99.90
59075;DHT22;44860;53.020;6.738;2023-12-07T13:15:02;1.80;99.90
59075;DHT22;44860;53.020;6.738;2023-12-07T13:17:27;1.80;99.90
59075;DHT22;44860;53.020;6.738;2023-12-07T13:19:53;1.80;99.90
59075;DHT22;44860;53.020;6.738;2023-12-07T13:22:19;1.80;99.90
59075;DHT22;44860;53.020;6.738;2023-12-07T13:24:48;1.80;99.90
59075;DHT22;44860;53.020;6.738;2023-12-07T13:27:14;1.80;99.90
59075;DHT22;44860;53.020;6.738;2023-12-07T13:29:41;1.80;99.90
59075;DHT22;44860;53.020;6.738;2023-12-07T13:32:06;1.80;99.90
59075;DHT22;44860;53.020;6.738;2023-12-07T13:34:33;1.80;99.90
59075;DHT22;44860;53.020;6.738;2023-12-07T13:36:59;1.80;99.90
59075;DHT22;44860;53.020;6.738;2023-12-07T13:39:24;1.80;99.90
59075;DHT22;44860;53.020;6.738;2023-12-07T13:41:52;1.80;99.90
59075;DHT22;44860;53.020;6.738;2023-12-07T13:44:18;1.80;99.90
59075;DHT22;44860;53.020;6.738;2023-12-07T13:46:44;1.80;99.90
59075;DHT22;44860;53.020;6.738;2023-12-07T13:49:10;1.80;99.90
59075;DHT22;44860;53.020;6.738;2023-12-07T13:51:42;1.80;99.90
59075;DHT22;44860;53.020;6.738;2023-12-07T13:54:08;1.90;99.90
59075;DHT22;44860;53.020;6.738;2023-12-07T13:56:34;1.80;99.90
59075;DHT22;44860;53.020;6.738;2023-12-07T13:59:00;1.80;99.90
59075;DHT22;44860;53.020;6.738;2023-12-07T14:01:26;1.90;99.90
59075;DHT22;44860;53.020;6.738;2023-12-07T14:03:52;1.90;99.90
59075;DHT22;44860;53.020;6.738;2023-12-07T14:06:22;1.90;99.90
59075;DHT22;44860;53.020;6.738;2023-12-07T14:08:49;1.90;99.90
59075;DHT22;44860;53.020;6.738;2023-12-07T14:11:18;1.90;99.90
59075;DHT22;44860;53.020;6.738;2023-12-07T14:13:45;1.90;99.90
59075;DHT22;44860;53.020;6.738;2023-12-07T14:16:12;1.90;99.90
59075;DHT22;44860;53.020;6.738;2023-12-07T14:18:38;1.90;99.90
59075;DHT22;44860;53.020;6.738;2023-12-07T14:21:03;1.90;99.90
59075;DHT22;44860;53.020;6.738;2023-12-07T14:23:29;1.90;99.90
59075;DHT22;44860;53.020;6.738;2023-12-07T14:25:55;2.00;99.90
59075;DHT22;44860;53.020;6.738;2023-12-07T14:28:24;2.00;99.90
59075;DHT22;44860;53.020;6.738;2023-12-07T14:30:50;2.00;99.90
59075;DHT22;44860;53.020;6.738;2023-12-07T14:33:22;2.00;99.90
59075;DHT22;44860;53.020;6.738;2023-12-07T14:35:47;2.00;99.90
59075;DHT22;44860;53.020;6.738;2023-12-07T14:38:14;2.00;99.90
59075;DHT22;44860;53.020;6.738;2023-12-07T14:40:40;2.10;99.90
59075;DHT22;44860;53.020;6.738;2023-12-07T14:43:06;2.10;99.90
59075;DHT22;44860;53.020;6.738;2023-12-07T14:45:32;2.10;99.90
59075;DHT22;44860;53.020;6.738;2023-12-07T14:47:57;2.10;99.90
59075;DHT22;44860;53.020;6.738;2023-12-07T14:50:23;2.10;99.90
59075;DHT22;44860;53.020;6.738;2023-12-07T14:52:49;2.10;99.90
59075;DHT22;44860;53.020;6.738;2023-12-07T14:55:15;2.20;99.90
59075;DHT22;44860;53.020;6.738;2023-12-07T14:57:41;2.20;99.90
59075;DHT22;44860;53.020;6.738;2023-12-07T15:00:07;2.20;99.90
59075;DHT22;44860;53.020;6.738;2023-12-07T15:02:33;2.20;99.90
59075;DHT22;44860;53.020;6.738;2023-12-07T15:04:58;2.20;99.90
59075;DHT22;44860;53.020;6.738;2023-12-07T15:07:24;2.20;99.90
59075;DHT22;44860;53.020;6.738;2023-12-07T15:09:49;2.20;99.90
59075;DHT22;44860;53.020;6.738;2023-12-07T15:12:17;2.30;99.90
59075;DHT22;44860;53.020;6.738;2023-12-07T15:14:45;2.30;99.90
59075;DHT22;44860;53.020;6.738;2023-12-07T15:17:11;2.30;99.90
59075;DHT22;44860;53.020;6.738;2023-12-07T15:19:37;2.30;99.90
59075;DHT22;44860;53.020;6.738;2023-12-07T15:22:03;2.30;99.90
59075;DHT22;44860;53.020;6.738;2023-12-07T15:24:29;2.30;99.90
59075;DHT22;44860;53.020;6.738;2023-12-07T15:26:55;2.30;99.90
59075;DHT22;44860;53.020;6.738;2023-12-07T15:29:21;2.40;99.90
59075;DHT22;44860;53.020;6.738;2023-12-07T15:31:46;2.40;99.90
59075;DHT22;44860;53.020;6.738;2023-12-07T15:34:12;2.40;99.90
59075;DHT22;44860;53.020;6.738;2023-12-07T15:36:38;2.30;99.90
59075;DHT22;44860;53.020;6.738;2023-12-07T15:39:03;2.40;99.90
59075;DHT22;44860;53.020;6.738;2023-12-07T15:41:32;2.30;99.90
59075;DHT22;44860;53.020;6.738;2023-12-07T15:43:57;2.30;99.90
59075;DHT22;44860;53.020;6.738;2023-12-07T15:46:23;2.30;99.90
59075;DHT22;44860;53.020;6.738;2023-12-07T15:48:49;2.30;99.90
59075;DHT22;44860;53.020;6.738;2023-12-07T15:51:14;2.30;99.90